sensor_id;sensor_type;location;lat;lon;timestamp;temperature;humidity
1391;DHT22;690;51.454;7.194;2023-06-14T00:01:16;16.10;53.20
1391;DHT22;690;51.454;7.194;2023-06-14T00:03:42;16.00;53.20
1391;DHT22;690;51.454;7.194;2023-06-14T00:06:11;15.90;53.00
1391;DHT22;690;51.454;7.194;2023-06-14T00:08:38;15.80;52.60
1391;DHT22;690;51.454;7.194;2023-06-14T00:11:05;15.80;52.80
1391;DHT22;690;51.454;7.194;2023-06-14T00:13:32;15.70;52.30
1391;DHT22;690;51.454;7.194;2023-06-14T00:15:59;15.60;52.10
1391;DHT22;690;51.454;7.194;2023-06-14T00:18:26;15.60;52.70
1391;DHT22;690;51.454;7.194;2023-06-14T00:20:55;15.60;52.50
1391;DHT22;690;51.454;7.194;2023-06-14T00:23:24;15.50;52.20
1391;DHT22;690;51.454;7.194;2023-06-14T00:25:51;15.50;52.40
1391;DHT22;690;51.454;7.194;2023-06-14T00:28:18;15.50;52.50
1391;DHT22;690;51.454;7.194;2023-06-14T00:30:44;15.40;52.20
1391;DHT22;690;51.454;7.194;2023-06-14T00:33:12;15.40;52.60
1391;DHT22;690;51.454;7.194;2023-06-14T00:35:39;15.40;52.50
1391;DHT22;690;51.454;7.194;2023-06-14T00:38:06;15.40;52.40
1391;DHT22;690;51.454;7.194;2023-06-14T00:40:34;15.30;52.40
1391;DHT22;690;51.454;7.194;2023-06-14T00:43:01;15.30;52.80
1391;DHT22;690;51.454;7.194;2023-06-14T00:45:30;15.30;52.20
1391;DHT22;690;51.454;7.194;2023-06-14T00:48:01;15.30;51.90
1391;DHT22;690;51.454;7.194;2023-06-14T00:50:29;15.30;52.60
1391;DHT22;690;51.454;7.194;2023-06-14T00:52:58;15.30;51.90
1391;DHT22;690;51.454;7.194;2023-06-14T00:55:27;15.30;51.90
1391;DHT22;690;51.454;7.194;2023-06-14T00:57:59;15.20;51.70
1391;DHT22;690;51.454;7.194;2023-06-14T01:00:26;15.20;51.80
1391;DHT22;690;51.454;7.194;2023-06-14T01:02:54;15.20;51.90
1391;DHT22;690;51.454;7.194;2023-06-14T01:05:22;15.20;51.60
1391;DHT22;690;51.454;7.194;2023-06-14T01:08:01;15.20;51.60
1391;DHT22;690;51.454;7.194;2023-06-14T01:10:35;15.20;51.70
1391;DHT22;690;51.454;7.194;2023-06-14T01:13:11;15.20;51.80
1391;DHT22;690;51.454;7.194;2023-06-14T01:15:40;15.20;51.50
1391;DHT22;690;51.454;7.194;2023-06-14T01:18:07;15.10;51.20
1391;DHT22;690;51.454;7.194;2023-06-14T01:20:43;15.10;51.50
1391;DHT22;690;51.454;7.194;2023-06-14T01:23:16;15.00;50.90
1391;DHT22;690;51.454;7.194;2023-06-14T01:25:43;14.90;50.80
1391;DHT22;690;51.454;7.194;2023-06-14T01:28:11;14.90;50.60
1391;DHT22;690;51.454;7.194;2023-06-14T01:30:40;14.90;50.40
1391;DHT22;690;51.454;7.194;2023-06-14T01:33:12;14.80;50.20
1391;DHT22;690;51.454;7.194;2023-06-14T01:35:39;14.80;50.10
1391;DHT22;690;51.454;7.194;2023-06-14T01:38:06;14.80;50.00
1391;DHT22;690;51.454;7.194;2023-06-14T01:40:35;14.70;49.80
1391;DHT22;690;51.454;7.194;2023-06-14T01:43:03;14.70;49.50
1391;DHT22;690;51.454;7.194;2023-06-14T01:45:31;14.60;50.00
1391;DHT22;690;51.454;7.194;2023-06-14T01:47:59;14.70;50.10
1391;DHT22;690;51.454;7.194;2023-06-14T01:50:28;14.60;49.70
1391;DHT22;690;51.454;7.194;2023-06-14T01:52:56;14.60;49.50
1391;DHT22;690;51.454;7.194;2023-06-14T01:55:23;14.60;49.50
1391;DHT22;690;51.454;7.194;2023-06-14T01:57:52;14.50;49.40
1391;DHT22;690;51.454;7.194;2023-06-14T02:00:19;14.50;49.30
1391;DHT22;690;51.454;7.194;2023-06-14T02:02:47;14.50;49.40
1391;DHT22;690;51.454;7.194;2023-06-14T02:05:17;14.40;48.90
1391;DHT22;690;51.454;7.194;2023-06-14T02:07:45;14.40;48.70
1391;DHT22;690;51.454;7.194;2023-06-14T02:10:12;14.40;48.70
1391;DHT22;690;51.454;7.194;2023-06-14T02:12:39;14.30;48.80
1391;DHT22;690;51.454;7.194;2023-06-14T02:15:13;14.30;48.90
1391;DHT22;690;51.454;7.194;2023-06-14T02:17:42;14.30;48.60
1391;DHT22;690;51.454;7.194;2023-06-14T02:20:10;14.30;48.80
1391;DHT22;690;51.454;7.194;2023-06-14T02:22:37;14.20;48.70
1391;DHT22;690;51.454;7.194;2023-06-14T02:25:04;14.20;48.80
1391;DHT22;690;51.454;7.194;2023-06-14T02:27:32;14.20;48.50
1391;DHT22;690;51.454;7.194;2023-06-14T02:29:59;14.20;49.30
1391;DHT22;690;51.454;7.194;2023-06-14T02:32:27;14.20;48.70
1391;DHT22;690;51.454;7.194;2023-06-14T02:34:54;14.10;48.80
1391;DHT22;690;51.454;7.194;2023-06-14T02:37:21;14.00;48.30
1391;DHT22;690;51.454;7.194;2023-06-14T02:39:48;14.00;48.10
1391;DHT22;690;51.454;7.194;2023-06-14T02:42:15;13.90;47.90
1391;DHT22;690;51.454;7.194;2023-06-14T02:44:42;14.00;48.10
1391;DHT22;690;51.454;7.194;2023-06-14T02:47:09;13.90;47.90
1391;DHT22;690;51.454;7.194;2023-06-14T02:49:37;13.90;48.20
1391;DHT22;690;51.454;7.194;2023-06-14T02:52:05;13.90;47.90
1391;DHT22;690;51.454;7.194;2023-06-14T02:54:34;13.80;47.70
1391;DHT22;690;51.454;7.194;2023-06-14T02:57:01;13.80;47.80
1391;DHT22;690;51.454;7.194;2023-06-14T02:59:28;13.80;47.80
1391;DHT22;690;51.454;7.194;2023-06-14T03:01:55;13.80;48.00
1391;DHT22;690;51.454;7.194;2023-06-14T03:04:22;13.80;48.10
1391;DHT22;690;51.454;7.194;2023-06-14T03:06:52;13.80;48.00
1391;DHT22;690;51.454;7.194;2023-06-14T03:09:19;13.80;48.80
1391;DHT22;690;51.454;7.194;2023-06-14T03:11:46;13.80;53.80
1391;DHT22;690;51.454;7.194;2023-06-14T03:14:13;13.70;48.30
1391;DHT22;690;51.454;7.194;2023-06-14T03:16:40;13.70;48.30
1391;DHT22;690;51.454;7.194;2023-06-14T03:19:08;13.70;49.10
1391;DHT22;690;51.454;7.194;2023-06-14T03:21:35;13.70;48.50
1391;DHT22;690;51.454;7.194;2023-06-14T03:24:03;13.70;48.80
1391;DHT22;690;51.454;7.194;2023-06-14T03:26:30;13.70;49.20
1391;DHT22;690;51.454;7.194;2023-06-14T03:28:59;13.70;49.20
1391;DHT22;690;51.454;7.194;2023-06-14T03:31:28;13.60;49.20
1391;DHT22;690;51.454;7.194;2023-06-14T03:33:58;13.60;49.40
1391;DHT22;690;51.454;7.194;2023-06-14T03:36:26;13.60;52.20
1391;DHT22;690;51.454;7.194;2023-06-14T03:38:53;13.60;49.40
1391;DHT22;690;51.454;7.194;2023-06-14T03:41:22;13.60;49.60
1391;DHT22;690;51.454;7.194;2023-06-14T03:43:49;13.70;50.10
1391;DHT22;690;51.454;7.194;2023-06-14T03:46:15;13.60;50.10
1391;DHT22;690;51.454;7.194;2023-06-14T03:48:42;13.60;50.70
1391;DHT22;690;51.454;7.194;2023-06-14T03:51:09;13.60;50.70
1391;DHT22;690;51.454;7.194;2023-06-14T03:53:36;13.70;50.80
1391;DHT22;690;51.454;7.194;2023-06-14T03:56:03;13.60;51.10
1391;DHT22;690;51.454;7.194;2023-06-14T03:58:31;13.50;51.20
1391;DHT22;690;51.454;7.194;2023-06-14T04:00:58;13.50;50.70
1391;DHT22;690;51.454;7.194;2023-06-14T04:03:26;13.60;51.00
1391;DHT22;690;51.454;7.194;2023-06-14T04:05:57;13.60;51.50
1391;DHT22;690;51.454;7.194;2023-06-14T04:08:25;13.60;51.70
1391;DHT22;690;51.454;7.194;2023-06-14T04:10:52;13.60;52.80
1391;DHT22;690;51.454;7.194;2023-06-14T04:13:19;13.60;53.00
1391;DHT22;690;51.454;7.194;2023-06-14T04:15:47;13.70;52.80
1391;DHT22;690;51.454;7.194;2023-06-14T04:18:14;13.70;53.30
1391;DHT22;690;51.454;7.194;2023-06-14T04:20:41;13.70;54.40
1391;DHT22;690;51.454;7.194;2023-06-14T04:23:14;13.80;54.80
1391;DHT22;690;51.454;7.194;2023-06-14T04:25:43;13.90;55.40
1391;DHT22;690;51.454;7.194;2023-06-14T04:28:11;13.90;55.50
1391;DHT22;690;51.454;7.194;2023-06-14T04:30:38;13.90;56.00
1391;DHT22;690;51.454;7.194;2023-06-14T04:33:08;13.90;55.90
1391;DHT22;690;51.454;7.194;2023-06-14T04:35:35;14.00;57.00
1391;DHT22;690;51.454;7.194;2023-06-14T04:38:03;14.00;56.90
1391;DHT22;690;51.454;7.194;2023-06-14T04:40:30;14.00;56.90
1391;DHT22;690;51.454;7.194;2023-06-14T04:42:59;14.00;58.10
1391;DHT22;690;51.454;7.194;2023-06-14T04:45:26;14.10;58.10
1391;DHT22;690;51.454;7.194;2023-06-14T04:47:58;14.10;58.50
1391;DHT22;690;51.454;7.194;2023-06-14T04:50:27;14.20;59.90
1391;DHT22;690;51.454;7.194;2023-06-14T04:52:55;14.20;59.30
1391;DHT22;690;51.454;7.194;2023-06-14T04:55:22;14.20;59.60
1391;DHT22;690;51.454;7.194;2023-06-14T04:57:50;14.20;60.20
1391;DHT22;690;51.454;7.194;2023-06-14T05:00:19;14.30;61.40
1391;DHT22;690;51.454;7.194;2023-06-14T05:02:46;14.30;61.20
1391;DHT22;690;51.454;7.194;2023-06-14T05:05:16;14.40;62.10
1391;DHT22;690;51.454;7.194;2023-06-14T05:07:46;14.40;62.40
1391;DHT22;690;51.454;7.194;2023-06-14T05:10:13;14.40;75.90
1391;DHT22;690;51.454;7.194;2023-06-14T05:12:40;14.50;63.90
1391;DHT22;690;51.454;7.194;2023-06-14T05:15:09;14.60;64.60
1391;DHT22;690;51.454;7.194;2023-06-14T05:17:37;14.60;65.20
1391;DHT22;690;51.454;7.194;2023-06-14T05:20:07;14.70;66.60
1391;DHT22;690;51.454;7.194;2023-06-14T05:22:35;14.70;66.10
1391;DHT22;690;51.454;7.194;2023-06-14T05:25:04;14.70;67.10
1391;DHT22;690;51.454;7.194;2023-06-14T05:27:32;14.80;67.80
1391;DHT22;690;51.454;7.194;2023-06-14T05:30:01;14.90;68.20
1391;DHT22;690;51.454;7.194;2023-06-14T05:32:29;14.90;68.80
1391;DHT22;690;51.454;7.194;2023-06-14T05:34:56;15.00;69.90
1391;DHT22;690;51.454;7.194;2023-06-14T05:37:23;15.00;70.10
1391;DHT22;690;51.454;7.194;2023-06-14T05:39:50;15.20;71.30
1391;DHT22;690;51.454;7.194;2023-06-14T05:42:18;15.20;71.80
1391;DHT22;690;51.454;7.194;2023-06-14T05:44:45;15.30;72.30
1391;DHT22;690;51.454;7.194;2023-06-14T05:47:12;15.30;72.50
1391;DHT22;690;51.454;7.194;2023-06-14T05:49:39;15.40;73.20
1391;DHT22;690;51.454;7.194;2023-06-14T05:52:07;15.40;74.00
1391;DHT22;690;51.454;7.194;2023-06-14T05:54:34;15.50;74.00
1391;DHT22;690;51.454;7.194;2023-06-14T05:57:01;15.40;73.40
1391;DHT22;690;51.454;7.194;2023-06-14T05:59:30;15.50;74.70
1391;DHT22;690;51.454;7.194;2023-06-14T06:01:57;15.60;75.90
1391;DHT22;690;51.454;7.194;2023-06-14T06:04:24;15.70;76.60
1391;DHT22;690;51.454;7.194;2023-06-14T06:06:51;15.80;76.60
1391;DHT22;690;51.454;7.194;2023-06-14T06:09:18;15.80;78.20
1391;DHT22;690;51.454;7.194;2023-06-14T06:11:45;15.80;77.20
1391;DHT22;690;51.454;7.194;2023-06-14T06:14:12;15.80;77.30
1391;DHT22;690;51.454;7.194;2023-06-14T06:16:40;15.80;77.60
1391;DHT22;690;51.454;7.194;2023-06-14T06:19:07;15.90;78.50
1391;DHT22;690;51.454;7.194;2023-06-14T06:21:34;16.00;79.50
1391;DHT22;690;51.454;7.194;2023-06-14T06:24:01;16.00;79.50
1391;DHT22;690;51.454;7.194;2023-06-14T06:26:31;16.10;80.50
1391;DHT22;690;51.454;7.194;2023-06-14T06:28:58;16.20;80.80
1391;DHT22;690;51.454;7.194;2023-06-14T06:31:25;16.20;80.80
1391;DHT22;690;51.454;7.194;2023-06-14T06:33:54;16.20;81.70
1391;DHT22;690;51.454;7.194;2023-06-14T06:36:21;16.20;82.60
1391;DHT22;690;51.454;7.194;2023-06-14T06:38:48;16.30;81.60
1391;DHT22;690;51.454;7.194;2023-06-14T06:41:15;16.20;80.90
1391;DHT22;690;51.454;7.194;2023-06-14T06:43:42;16.40;82.20
1391;DHT22;690;51.454;7.194;2023-06-14T06:46:08;16.40;82.20
1391;DHT22;690;51.454;7.194;2023-06-14T06:48:36;16.40;83.70
1391;DHT22;690;51.454;7.194;2023-06-14T06:51:04;16.50;84.00
1391;DHT22;690;51.454;7.194;2023-06-14T06:53:32;16.60;84.20
1391;DHT22;690;51.454;7.194;2023-06-14T06:55:59;16.60;85.20
1391;DHT22;690;51.454;7.194;2023-06-14T06:58:25;16.70;85.20
1391;DHT22;690;51.454;7.194;2023-06-14T07:00:52;16.80;86.00
1391;DHT22;690;51.454;7.194;2023-06-14T07:03:19;16.80;86.60
1391;DHT22;690;51.454;7.194;2023-06-14T07:05:46;16.90;94.60
1391;DHT22;690;51.454;7.194;2023-06-14T07:08:14;17.00;87.90
1391;DHT22;690;51.454;7.194;2023-06-14T07:10:41;17.00;87.60
1391;DHT22;690;51.454;7.194;2023-06-14T07:13:08;17.10;88.90
1391;DHT22;690;51.454;7.194;2023-06-14T07:15:35;17.20;89.70
1391;DHT22;690;51.454;7.194;2023-06-14T07:18:02;17.30;90.40
1391;DHT22;690;51.454;7.194;2023-06-14T07:20:29;17.30;90.00
1391;DHT22;690;51.454;7.194;2023-06-14T07:22:56;17.30;90.40
1391;DHT22;690;51.454;7.194;2023-06-14T07:25:24;17.40;90.50
1391;DHT22;690;51.454;7.194;2023-06-14T07:27:51;17.40;96.10
1391;DHT22;690;51.454;7.194;2023-06-14T07:30:18;17.40;90.20
1391;DHT22;690;51.454;7.194;2023-06-14T07:32:45;17.40;90.30
1391;DHT22;690;51.454;7.194;2023-06-14T07:35:12;17.40;90.60
1391;DHT22;690;51.454;7.194;2023-06-14T07:37:39;17.40;90.20
1391;DHT22;690;51.454;7.194;2023-06-14T07:40:07;17.50;90.90
1391;DHT22;690;51.454;7.194;2023-06-14T07:42:37;17.60;91.10
1391;DHT22;690;51.454;7.194;2023-06-14T07:45:05;17.60;91.20
1391;DHT22;690;51.454;7.194;2023-06-14T07:47:32;17.70;97.10
1391;DHT22;690;51.454;7.194;2023-06-14T07:49:59;17.70;91.30
1391;DHT22;690;51.454;7.194;2023-06-14T07:52:26;17.80;91.60
1391;DHT22;690;51.454;7.194;2023-06-14T07:54:52;17.80;91.90
1391;DHT22;690;51.454;7.194;2023-06-14T07:57:19;17.80;92.20
1391;DHT22;690;51.454;7.194;2023-06-14T07:59:47;17.80;92.20
1391;DHT22;690;51.454;7.194;2023-06-14T08:02:14;17.90;92.50
1391;DHT22;690;51.454;7.194;2023-06-14T08:04:41;17.90;92.10
1391;DHT22;690;51.454;7.194;2023-06-14T08:07:08;18.00;92.40
1391;DHT22;690;51.454;7.194;2023-06-14T08:09:35;18.00;92.50
1391;DHT22;690;51.454;7.194;2023-06-14T08:12:04;18.10;92.80
1391;DHT22;690;51.454;7.194;2023-06-14T08:14:33;18.10;92.80
1391;DHT22;690;51.454;7.194;2023-06-14T08:17:01;18.00;98.40
1391;DHT22;690;51.454;7.194;2023-06-14T08:19:28;18.10;92.90
1391;DHT22;690;51.454;7.194;2023-06-14T08:21:55;18.10;92.90
1391;DHT22;690;51.454;7.194;2023-06-14T08:24:22;18.10;92.90
1391;DHT22;690;51.454;7.194;2023-06-14T08:26:50;18.10;92.80
1391;DHT22;690;51.454;7.194;2023-06-14T08:29:17;18.10;92.80
1391;DHT22;690;51.454;7.194;2023-06-14T08:31:45;18.20;92.50
1391;DHT22;690;51.454;7.194;2023-06-14T08:34:13;18.20;92.20
1391;DHT22;690;51.454;7.194;2023-06-14T08:36:40;18.10;91.80
1391;DHT22;690;51.454;7.194;2023-06-14T08:39:07;18.20;92.40
1391;DHT22;690;51.454;7.194;2023-06-14T08:41:35;18.30;92.20
1391;DHT22;690;51.454;7.194;2023-06-14T08:44:03;18.40;92.70
1391;DHT22;690;51.454;7.194;2023-06-14T08:46:32;18.40;92.70
1391;DHT22;690;51.454;7.194;2023-06-14T08:48:59;18.50;93.00
1391;DHT22;690;51.454;7.194;2023-06-14T08:51:31;18.40;98.20
1391;DHT22;690;51.454;7.194;2023-06-14T08:54:00;18.40;92.70
1391;DHT22;690;51.454;7.194;2023-06-14T08:56:30;18.40;92.40
1391;DHT22;690;51.454;7.194;2023-06-14T08:58:58;18.30;92.40
1391;DHT22;690;51.454;7.194;2023-06-14T09:01:29;18.40;92.40
1391;DHT22;690;51.454;7.194;2023-06-14T09:03:56;18.50;92.80
1391;DHT22;690;51.454;7.194;2023-06-14T09:06:24;18.50;93.20
1391;DHT22;690;51.454;7.194;2023-06-14T09:08:55;18.50;93.00
1391;DHT22;690;51.454;7.194;2023-06-14T09:11:23;18.60;93.50
1391;DHT22;690;51.454;7.194;2023-06-14T09:13:51;18.70;93.50
1391;DHT22;690;51.454;7.194;2023-06-14T09:16:18;18.70;93.60
1391;DHT22;690;51.454;7.194;2023-06-14T09:18:46;18.80;93.90
1391;DHT22;690;51.454;7.194;2023-06-14T09:21:15;18.80;94.00
1391;DHT22;690;51.454;7.194;2023-06-14T09:23:44;18.80;94.30
1391;DHT22;690;51.454;7.194;2023-06-14T09:26:14;18.80;94.00
1391;DHT22;690;51.454;7.194;2023-06-14T09:28:41;19.00;94.40
1391;DHT22;690;51.454;7.194;2023-06-14T09:31:10;19.00;94.60
1391;DHT22;690;51.454;7.194;2023-06-14T09:33:37;19.00;94.30
1391;DHT22;690;51.454;7.194;2023-06-14T09:36:04;19.00;94.10
1391;DHT22;690;51.454;7.194;2023-06-14T09:38:36;19.00;94.60
1391;DHT22;690;51.454;7.194;2023-06-14T09:41:04;19.10;94.20
1391;DHT22;690;51.454;7.194;2023-06-14T09:43:33;19.00;94.00
1391;DHT22;690;51.454;7.194;2023-06-14T09:46:00;19.00;93.90
1391;DHT22;690;51.454;7.194;2023-06-14T09:48:27;19.10;94.10
1391;DHT22;690;51.454;7.194;2023-06-14T09:50:55;19.10;99.70
1391;DHT22;690;51.454;7.194;2023-06-14T09:53:24;19.10;94.20
1391;DHT22;690;51.454;7.194;2023-06-14T09:55:52;19.00;93.70
1391;DHT22;690;51.454;7.194;2023-06-14T09:58:23;19.00;93.40
1391;DHT22;690;51.454;7.194;2023-06-14T10:00:54;19.00;93.70
1391;DHT22;690;51.454;7.194;2023-06-14T10:03:25;19.00;93.80
1391;DHT22;690;51.454;7.194;2023-06-14T10:05:55;19.10;94.00
1391;DHT22;690;51.454;7.194;2023-06-14T10:08:29;19.10;94.10
1391;DHT22;690;51.454;7.194;2023-06-14T10:10:58;19.20;94.60
1391;DHT22;690;51.454;7.194;2023-06-14T10:13:27;19.20;94.50
1391;DHT22;690;51.454;7.194;2023-06-14T10:16:00;19.20;94.60
1391;DHT22;690;51.454;7.194;2023-06-14T10:18:35;19.30;95.30
1391;DHT22;690;51.454;7.194;2023-06-14T10:21:12;19.40;95.50
1391;DHT22;690;51.454;7.194;2023-06-14T10:23:42;19.40;95.80
1391;DHT22;690;51.454;7.194;2023-06-14T10:26:18;19.40;95.60
1391;DHT22;690;51.454;7.194;2023-06-14T10:28:56;19.40;95.70
1391;DHT22;690;51.454;7.194;2023-06-14T10:31:40;19.40;95.80
1391;DHT22;690;51.454;7.194;2023-06-14T10:34:07;19.50;96.10
1391;DHT22;690;51.454;7.194;2023-06-14T10:36:34;19.40;95.80
1391;DHT22;690;51.454;7.194;2023-06-14T10:39:04;19.50;96.10
1391;DHT22;690;51.454;7.194;2023-06-14T10:41:33;19.60;96.40
1391;DHT22;690;51.454;7.194;2023-06-14T10:44:39;19.60;96.50
1391;DHT22;690;51.454;7.194;2023-06-14T10:47:23;19.70;96.80
1391;DHT22;690;51.454;7.194;2023-06-14T10:49:51;19.80;97.40
1391;DHT22;690;51.454;7.194;2023-06-14T10:52:23;19.80;97.40
1391;DHT22;690;51.454;7.194;2023-06-14T10:55:05;19.70;96.90
1391;DHT22;690;51.454;7.194;2023-06-14T10:57:35;19.70;96.70
1391;DHT22;690;51.454;7.194;2023-06-14T11:00:03;19.70;96.90
1391;DHT22;690;51.454;7.194;2023-06-14T11:05:48;19.70;96.90
1391;DHT22;690;51.454;7.194;2023-06-14T11:08:27;19.70;97.00
1391;DHT22;690;51.454;7.194;2023-06-14T11:11:00;19.90;97.50
1391;DHT22;690;51.454;7.194;2023-06-14T11:13:32;19.80;97.50
1391;DHT22;690;51.454;7.194;2023-06-14T11:15:59;19.90;97.80
1391;DHT22;690;51.454;7.194;2023-06-14T11:18:28;19.90;97.90
1391;DHT22;690;51.454;7.194;2023-06-14T11:20:55;20.00;98.40
1391;DHT22;690;51.454;7.194;2023-06-14T11:23:22;20.00;98.40
1391;DHT22;690;51.454;7.194;2023-06-14T11:25:50;20.00;98.70
1391;DHT22;690;51.454;7.194;2023-06-14T11:28:17;20.10;99.30
1391;DHT22;690;51.454;7.194;2023-06-14T11:30:47;20.20;99.30
1391;DHT22;690;51.454;7.194;2023-06-14T11:33:17;20.20;99.60
1391;DHT22;690;51.454;7.194;2023-06-14T11:35:46;20.30;99.70
1391;DHT22;690;51.454;7.194;2023-06-14T11:38:13;20.40;99.90
1391;DHT22;690;51.454;7.194;2023-06-14T11:40:40;20.60;99.90
1391;DHT22;690;51.454;7.194;2023-06-14T11:43:07;20.60;99.90
1391;DHT22;690;51.454;7.194;2023-06-14T11:45:34;20.80;99.90
1391;DHT22;690;51.454;7.194;2023-06-14T11:48:01;20.80;99.90
1391;DHT22;690;51.454;7.194;2023-06-14T11:50:31;20.90;99.90
1391;DHT22;690;51.454;7.194;2023-06-14T11:53:00;20.90;99.90
1391;DHT22;690;51.454;7.194;2023-06-14T11:55:36;21.00;99.90
1391;DHT22;690;51.454;7.194;2023-06-14T11:58:03;21.10;99.90
1391;DHT22;690;51.454;7.194;2023-06-14T12:00:31;21.10;99.90
1391;DHT22;690;51.454;7.194;2023-06-14T12:02:58;21.10;99.90
1391;DHT22;690;51.454;7.194;2023-06-14T12:05:26;21.10;99.90
1391;DHT22;690;51.454;7.194;2023-06-14T12:07:59;21.20;99.90
1391;DHT22;690;51.454;7.194;2023-06-14T12:10:27;21.30;99.90
1391;DHT22;690;51.454;7.194;2023-06-14T12:12:57;21.30;99.90
1391;DHT22;690;51.454;7.194;2023-06-14T12:15:28;21.20;99.90
1391;DHT22;690;51.454;7.194;2023-06-14T12:17:55;21.20;99.90
1391;DHT22;690;51.454;7.194;2023-06-14T12:20:22;21.20;99.90
1391;DHT22;690;51.454;7.194;2023-06-14T12:22:53;21.20;99.90
1391;DHT22;690;51.454;7.194;2023-06-14T12:25:28;21.40;99.90
1391;DHT22;690;51.454;7.194;2023-06-14T12:27:57;21.30;99.90
1391;DHT22;690;51.454;7.194;2023-06-14T12:30:25;21.40;99.90
1391;DHT22;690;51.454;7.194;2023-06-14T12:32:51;21.50;99.90
1391;DHT22;690;51.454;7.194;2023-06-14T12:35:18;21.40;99.90
1391;DHT22;690;51.454;7.194;2023-06-14T12:37:45;21.50;99.90
1391;DHT22;690;51.454;7.194;2023-06-14T12:40:13;21.50;99.90
1391;DHT22;690;51.454;7.194;2023-06-14T12:42:41;21.60;99.90
1391;DHT22;690;51.454;7.194;2023-06-14T12:45:09;21.70;99.90
1391;DHT22;690;51.454;7.194;2023-06-14T12:47:36;21.70;99.90
1391;DHT22;690;51.454;7.194;2023-06-14T12:50:04;21.80;99.90
1391;DHT22;690;51.454;7.194;2023-06-14T12:52:31;21.80;99.90
1391;DHT22;690;51.454;7.194;2023-06-14T12:55:01;21.70;99.90
1391;DHT22;690;51.454;7.194;2023-06-14T12:57:28;21.60;99.90
1391;DHT22;690;51.454;7.194;2023-06-14T12:59:56;21.70;99.90
1391;DHT22;690;51.454;7.194;2023-06-14T13:02:23;21.80;99.90
1391;DHT22;690;51.454;7.194;2023-06-14T13:04:51;22.00;99.90
1391;DHT22;690;51.454;7.194;2023-06-14T13:07:18;22.10;99.90
1391;DHT22;690;51.454;7.194;2023-06-14T13:09:45;22.10;99.90
1391;DHT22;690;51.454;7.194;2023-06-14T13:12:12;22.10;99.90
1391;DHT22;690;51.454;7.194;2023-06-14T13:14:39;22.20;99.90
1391;DHT22;690;51.454;7.194;2023-06-14T13:17:09;22.20;99.90
1391;DHT22;690;51.454;7.194;2023-06-14T13:19:36;22.20;99.90
1391;DHT22;690;51.454;7.194;2023-06-14T13:22:03;22.10;99.90
1391;DHT22;690;51.454;7.194;2023-06-14T13:24:31;22.00;99.90
1391;DHT22;690;51.454;7.194;2023-06-14T13:26:57;22.10;99.90
1391;DHT22;690;51.454;7.194;2023-06-14T13:29:25;22.00;99.90
1391;DHT22;690;51.454;7.194;2023-06-14T13:31:53;22.10;99.90
1391;DHT22;690;51.454;7.194;2023-06-14T13:34:22;22.20;99.90
1391;DHT22;690;51.454;7.194;2023-06-14T13:36:50;22.30;99.90
1391;DHT22;690;51.454;7.194;2023-06-14T13:39:16;22.40;99.90
1391;DHT22;690;51.454;7.194;2023-06-14T13:41:43;22.50;99.90
1391;DHT22;690;51.454;7.194;2023-06-14T13:44:10;22.50;99.90
1391;DHT22;690;51.454;7.194;2023-06-14T13:46:39;22.50;99.90
1391;DHT22;690;51.454;7.194;2023-06-14T13:49:08;22.60;99.90
1391;DHT22;690;51.454;7.194;2023-06-14T13:51:37;22.60;99.90
1391;DHT22;690;51.454;7.194;2023-06-14T13:54:04;22.60;99.90
1391;DHT22;690;51.454;7.194;2023-06-14T13:56:31;22.60;99.90
1391;DHT22;690;51.454;7.194;2023-06-14T13:58:58;22.50;99.90
1391;DHT22;690;51.454;7.194;2023-06-14T14:01:25;22.50;99.90
1391;DHT22;690;51.454;7.194;2023-06-14T14:03:54;22.60;99.90
1391;DHT22;690;51.454;7.194;2023-06-14T14:06:21;22.80;99.90
1391;DHT22;690;51.454;7.194;2023-06-14T14:08:49;22.80;99.90
1391;DHT22;690;51.454;7.194;2023-06-14T14:11:16;22.80;99.90
1391;DHT22;690;51.454;7.194;2023-06-14T14:13:43;23.00;99.90
1391;DHT22;690;51.454;7.194;2023-06-14T14:16:10;23.10;99.90
1391;DHT22;690;51.454;7.194;2023-06-14T14:18:40;23.10;99.90
1391;DHT22;690;51.454;7.194;2023-06-14T14:21:07;23.20;99.90
1391;DHT22;690;51.454;7.194;2023-06-14T14:23:35;23.30;99.90
1391;DHT22;690;51.454;7.194;2023-06-14T14:26:03;23.40;99.90
1391;DHT22;690;51.454;7.194;2023-06-14T14:28:30;23.50;99.90
1391;DHT22;690;51.454;7.194;2023-06-14T14:30:58;23.50;99.90
1391;DHT22;690;51.454;7.194;2023-06-14T14:33:25;23.40;99.90
1391;DHT22;690;51.454;7.194;2023-06-14T14:35:51;23.30;99.90
1391;DHT22;690;51.454;7.194;2023-06-14T14:38:18;23.20;99.90
1391;DHT22;690;51.454;7.194;2023-06-14T14:40:45;23.00;99.90
1391;DHT22;690;51.454;7.194;2023-06-14T14:43:13;23.00;99.90
1391;DHT22;690;51.454;7.194;2023-06-14T14:45:50;23.00;99.90
1391;DHT22;690;51.454;7.194;2023-06-14T14:48:17;23.10;99.90
1391;DHT22;690;51.454;7.194;2023-06-14T14:50:44;23.30;99.90
1391;DHT22;690;51.454;7.194;2023-06-14T14:53:11;23.40;99.90
1391;DHT22;690;51.454;7.194;2023-06-14T14:55:38;23.40;99.90
1391;DHT22;690;51.454;7.194;2023-06-14T14:58:07;23.40;99.90
1391;DHT22;690;51.454;7.194;2023-06-14T15:00:35;23.50;99.90
1391;DHT22;690;51.454;7.194;2023-06-14T15:03:02;23.40;99.90
1391;DHT22;690;51.454;7.194;2023-06-14T15:05:29;23.50;99.90
1391;DHT22;690;51.454;7.194;2023-06-14T15:07:56;23.70;99.90
1391;DHT22;690;51.454;7.194;2023-06-14T15:10:23;23.90;99.90
1391;DHT22;690;51.454;7.194;2023-06-14T15:12:50;24.10;99.90
1391;DHT22;690;51.454;7.194;2023-06-14T15:15:17;24.20;99.90
1391;DHT22;690;51.454;7.194;2023-06-14T15:17:45;24.30;99.90
1391;DHT22;690;51.454;7.194;2023-06-14T15:20:12;24.50;99.90
1391;DHT22;690;51.454;7.194;2023-06-14T15:22:40;25.00;99.90
1391;DHT22;690;51.454;7.194;2023-06-14T15:25:07;25.70;99.90
1391;DHT22;690;51.454;7.194;2023-06-14T15:27:34;26.90;99.90
1391;DHT22;690;51.454;7.194;2023-06-14T15:30:01;28.30;99.90
1391;DHT22;690;51.454;7.194;2023-06-14T15:32:28;29.80;99.90
1391;DHT22;690;51.454;7.194;2023-06-14T15:34:57;31.10;99.90
1391;DHT22;690;51.454;7.194;2023-06-14T15:37:24;32.50;99.90
1391;DHT22;690;51.454;7.194;2023-06-14T15:39:50;33.60;99.90
1391;DHT22;690;51.454;7.194;2023-06-14T15:42:17;34.40;99.90
1391;DHT22;690;51.454;7.194;2023-06-14T15:44:44;35.10;99.90
1391;DHT22;690;51.454;7.194;2023-06-14T15:47:12;35.60;99.90
1391;DHT22;690;51.454;7.194;2023-06-14T15:49:39;36.00;99.90
1391;DHT22;690;51.454;7.194;2023-06-14T15:52:08;36.30;99.90
1391;DHT22;690;51.454;7.194;2023-06-14T15:54:35;37.00;99.90
1391;DHT22;690;51.454;7.194;2023-06-14T15:57:02;37.70;99.90
1391;DHT22;690;51.454;7.194;2023-06-14T15:59:29;37.90;99.90
1391;DHT22;690;51.454;7.194;2023-06-14T16:01:56;38.10;99.90
1391;DHT22;690;51.454;7.194;2023-06-14T16:04:23;38.50;99.90
1391;DHT22;690;51.454;7.194;2023-06-14T16:06:50;39.20;99.90
1391;DHT22;690;51.454;7.194;2023-06-14T16:09:20;39.30;99.90
1391;DHT22;690;51.454;7.194;2023-06-14T16:11:47;38.90;99.90
1391;DHT22;690;51.454;7.194;2023-06-14T16:14:14;39.00;99.90
1391;DHT22;690;51.454;7.194;2023-06-14T16:16:41;39.10;99.90
1391;DHT22;690;51.454;7.194;2023-06-14T16:19:08;39.60;99.90
1391;DHT22;690;51.454;7.194;2023-06-14T16:21:35;39.40;99.90
1391;DHT22;690;51.454;7.194;2023-06-14T16:24:02;39.30;99.90
1391;DHT22;690;51.454;7.194;2023-06-14T16:26:31;39.30;99.90